Time;durP1;ratioP1;P1;durP2;ratioP2;P2;SDS_P1;SDS_P2;PMS_P1;PMS_P2;Temp;Humidity;BMP_temperature;BMP_pressure;BME280_temperature;BME280_humidity;BME280_pressure;Samples;Min_cycle;Max_cycle;Signal;HPM_P1;HPM_P2
2024/01/23 00:00:41;;;;;;;12.45;2.45;;;;;;;6.57;100.00;101498.88;4988546;28;20053;-66
2024/01/23 00:03:06;;;;;;;13.73;2.72;;;;;;;6.55;100.00;101506.50;4987865;28;20493;-66
2024/01/23 00:05:32;;;;;;;11.80;2.97;;;;;;;6.51;100.00;101501.09;5000492;28;20030;-66
2024/01/23 00:07:58;;;;;;;18.33;2.97;;;;;;;6.49;100.00;101504.44;4985669;28;20435;-66
2024/01/23 00:10:23;;;;;;;14.30;3.22;;;;;;;6.47;100.00;101503.50;4972555;28;20019;-66
2024/01/23 00:12:49;;;;;;;11.77;2.88;;;;;;;6.48;100.00;101524.97;4982573;28;20529;-66
2024/01/23 00:15:15;;;;;;;14.88;3.33;;;;;;;6.46;100.00;101532.59;4988577;28;20022;-66
2024/01/23 00:17:40;;;;;;;11.75;3.17;;;;;;;6.47;100.00;101534.41;4987608;28;20117;-66
2024/01/23 00:20:06;;;;;;;15.18;3.20;;;;;;;6.45;100.00;101551.44;4987413;28;20030;-65
2024/01/23 00:22:31;;;;;;;10.27;2.25;;;;;;;6.42;100.00;101540.06;4987620;28;20022;-66
2024/01/23 00:24:56;;;;;;;12.30;2.60;;;;;;;6.43;100.00;101554.69;4987971;28;20022;-66
2024/01/23 00:27:22;;;;;;;13.50;2.55;;;;;;;6.40;100.00;101549.38;4999466;28;20304;-66
2024/01/23 00:29:47;;;;;;;14.43;2.53;;;;;;;6.39;100.00;101556.19;4987132;28;20030;-66
2024/01/23 00:32:12;;;;;;;8.75;2.10;;;;;;;6.40;100.00;101560.56;4987271;28;20050;-66
2024/01/23 00:34:38;;;;;;;14.25;3.50;;;;;;;6.37;100.00;101562.94;4987319;28;20053;-66
2024/01/23 00:37:03;;;;;;;16.85;3.45;;;;;;;6.38;100.00;101563.84;4987657;28;20033;-66
2024/01/23 00:39:29;;;;;;;11.30;2.30;;;;;;;6.39;100.00;101555.31;4986997;28;20030;-66
2024/01/23 00:41:54;;;;;;;10.00;2.65;;;;;;;6.39;100.00;101555.31;4987637;28;20030;-66
2024/01/23 00:44:20;;;;;;;17.85;3.15;;;;;;;6.38;100.00;101563.84;4998700;28;20481;-65
2024/01/23 00:46:45;;;;;;;18.30;3.00;;;;;;;6.35;100.00;101580.00;4987445;28;20077;-66
2024/01/23 00:49:11;;;;;;;12.15;2.65;;;;;;;6.35;100.00;101572.28;4986615;28;20500;-66
2024/01/23 00:51:36;;;;;;;11.05;2.67;;;;;;;6.35;100.00;101574.84;4987527;28;20545;-66
2024/01/23 00:54:02;;;;;;;16.52;3.60;;;;;;;6.31;100.00;101576.34;4987259;28;20053;-66
2024/01/23 00:56:28;;;;;;;18.67;2.55;;;;;;;6.33;100.00;101579.00;4999697;28;20486;-66
2024/01/23 00:58:53;;;;;;;11.95;2.95;;;;;;;6.34;100.00;101578.22;4987248;28;20021;-66
2024/01/23 01:01:18;;;;;;;11.95;2.80;;;;;;;6.33;100.00;101609.91;4976053;28;20026;-66
2024/01/23 01:03:43;;;;;;;13.77;2.78;;;;;;;6.32;100.00;101608.09;4986323;28;20018;-66
2024/01/23 01:06:09;;;;;;;13.38;2.60;;;;;;;6.29;100.00;101610.50;4987691;28;20026;-67
2024/01/23 01:08:34;;;;;;;13.45;3.10;;;;;;;6.24;100.00;101618.81;4986953;28;20375;-66
2024/01/23 01:10:59;;;;;;;13.50;2.72;;;;;;;6.23;100.00;101603.28;4986251;28;20630;-66
2024/01/23 01:13:25;;;;;;;10.77;3.13;;;;;;;6.20;100.00;101614.28;4986566;28;20032;-66
2024/01/23 01:15:50;;;;;;;16.63;3.40;;;;;;;6.16;100.00;101630.34;4987628;28;20105;-66
2024/01/23 01:18:16;;;;;;;15.65;2.70;;;;;;;6.13;100.00;101627.56;4986828;28;20470;-66
2024/01/23 01:20:41;;;;;;;14.43;2.72;;;;;;;6.07;100.00;101625.50;4987347;28;20081;-65
2024/01/23 01:23:06;;;;;;;14.52;3.63;;;;;;;6.05;100.00;101646.72;4986237;28;20364;-66
2024/01/23 01:25:32;;;;;;;17.52;3.10;;;;;;;6.03;100.00;101656.06;4987211;28;20030;-66
2024/01/23 01:27:59;;;;;;;12.20;2.92;;;;;;;6.03;100.00;101653.50;4986915;28;20041;-66
2024/01/23 01:30:28;;;;;;;13.68;3.13;;;;;;;5.99;100.00;101662.69;4986267;28;20369;-66
2024/01/23 01:32:54;;;;;;;12.02;3.05;;;;;;;5.95;100.00;101676.16;4986425;28;20026;-66
2024/01/23 01:35:19;;;;;;;9.38;2.13;;;;;;;5.94;100.00;101672.69;4975391;28;20027;-66
2024/01/23 01:37:44;;;;;;;19.45;3.42;;;;;;;5.92;100.00;101679.41;4986085;28;20018;-65
2024/01/23 01:40:11;;;;;;;16.85;3.25;;;;;;;5.88;100.00;101680.00;4987148;28;20034;-66
2024/01/23 01:42:36;;;;;;;12.80;2.63;;;;;;;5.87;100.00;101683.34;4986577;28;20105;-65
2024/01/23 01:45:03;;;;;;;15.25;2.72;;;;;;;5.85;100.00;101700.38;4987008;28;20073;-65
2024/01/23 01:47:28;;;;;;;17.50;3.22;;;;;;;5.80;100.00;101699.19;4986934;28;20057;-66
2024/01/23 01:49:54;;;;;;;12.32;2.85;;;;;;;5.79;100.00;101690.59;4986847;28;20276;-66
2024/01/23 01:52:19;;;;;;;16.80;3.35;;;;;;;5.75;100.00;101686.94;4986769;28;20026;-66
2024/01/23 01:54:46;;;;;;;17.30;3.42;;;;;;;5.76;100.00;101692.94;4986498;28;20029;-66
2024/01/23 01:57:11;;;;;;;15.40;3.13;;;;;;;5.75;100.00;101697.22;4999433;28;20113;-66
2024/01/23 01:59:37;;;;;;;12.75;2.65;;;;;;;5.76;100.00;101710.94;4986603;28;20109;-66
2024/01/23 02:02:03;;;;;;;12.07;2.53;;;;;;;5.75;100.00;101716.91;4986266;28;20496;-66
2024/01/23 02:04:29;;;;;;;15.15;2.75;;;;;;;5.73;100.00;101721.94;4986985;28;20400;-66
2024/01/23 02:06:54;;;;;;;13.90;3.22;;;;;;;5.74;100.00;101730.53;4986738;28;20041;-65
2024/01/23 02:09:19;;;;;;;16.48;3.35;;;;;;;5.73;100.00;101732.25;4986655;28;20518;-66
2024/01/23 02:11:55;;;;;;;12.60;2.95;;;;;;;5.72;100.00;101733.00;4986657;28;20030;-65
2024/01/23 02:14:21;;;;;;;15.65;2.53;;;;;;;5.70;100.00;101742.28;4986454;28;20061;-66
2024/01/23 02:16:46;;;;;;;15.90;2.60;;;;;;;5.68;100.00;101737.84;4986158;28;20487;-66
2024/01/23 02:19:13;;;;;;;11.20;3.47;;;;;;;5.68;100.00;101748.16;4986708;28;20031;-66
2024/01/23 02:21:38;;;;;;;13.80;2.78;;;;;;;5.64;100.00;101741.91;4986492;28;20026;-66
2024/01/23 02:24:04;;;;;;;17.00;3.08;;;;;;;5.63;100.00;101753.88;4989294;28;20041;-66
2024/01/23 02:26:29;;;;;;;16.70;3.28;;;;;;;5.62;100.00;101753.75;4990287;28;20449;-66
2024/01/23 02:28:54;;;;;;;11.52;2.80;;;;;;;5.60;100.00;101760.47;4989357;28;20125;-65
2024/01/23 02:31:19;;;;;;;16.50;2.95;;;;;;;5.60;100.00;101770.75;4989502;28;20074;-66
2024/01/23 02:33:45;;;;;;;15.13;3.38;;;;;;;5.58;100.00;101767.19;4989060;28;20357;-66
2024/01/23 02:36:10;;;;;;;13.77;2.90;;;;;;;5.57;100.00;101765.44;4989364;28;20033;-65
2024/01/23 02:38:35;;;;;;;17.23;2.70;;;;;;;5.53;100.00;101780.66;4982572;28;20026;-65
2024/01/23 02:41:01;;;;;;;10.88;2.40;;;;;;;5.53;100.00;101785.78;4989729;28;20087;-66
2024/01/23 02:43:27;;;;;;;15.93;3.08;;;;;;;5.51;100.00;101789.94;4989530;28;20030;-66
2024/01/23 02:45:53;;;;;;;15.52;3.20;;;;;;;5.48;100.00;101805.16;4989447;28;20356;-66
2024/01/23 02:48:18;;;;;;;14.48;3.10;;;;;;;5.44;100.00;101798.03;4989793;28;20431;-66
2024/01/23 02:50:43;;;;;;;16.50;2.88;;;;;;;5.46;100.00;101793.88;4989442;28;20026;-65
2024/01/23 02:53:09;;;;;;;10.68;2.67;;;;;;;5.45;100.00;101802.34;4989476;28;20066;-66
2024/01/23 02:55:34;;;;;;;14.98;3.22;;;;;;;5.41;100.00;101803.81;4994276;28;20034;-66
2024/01/23 02:57:59;;;;;;;12.18;2.80;;;;;;;5.40;100.00;101814.00;5008234;28;20272;-66
2024/01/23 03:00:25;;;;;;;19.23;3.50;;;;;;;5.39;100.00;101812.25;4980322;28;20038;-65
2024/01/23 03:02:50;;;;;;;14.35;3.10;;;;;;;5.39;100.00;101823.41;4989220;28;20498;-65
2024/01/23 03:05:15;;;;;;;11.40;3.20;;;;;;;5.38;100.00;101836.13;4989196;28;20025;-66
2024/01/23 03:07:40;;;;;;;17.45;3.00;;;;;;;5.36;100.00;101832.59;4989320;28;20034;-66
2024/01/23 03:10:07;;;;;;;15.07;2.97;;;;;;;5.38;100.00;101836.13;4989399;28;20356;-65
2024/01/23 03:12:32;;;;;;;17.48;3.13;;;;;;;5.36;100.00;101855.75;4989102;28;20038;-67
2024/01/23 03:14:57;;;;;;;14.68;2.88;;;;;;;5.36;100.00;101842.88;4989052;28;20085;-66
2024/01/23 03:17:23;;;;;;;15.68;3.25;;;;;;;5.35;100.00;101841.06;4989101;28;20577;-65
2024/01/23 03:19:48;;;;;;;12.60;2.50;;;;;;;5.38;100.00;101847.31;4989069;28;20435;-65
2024/01/23 03:22:13;;;;;;;18.92;4.13;;;;;;;5.38;100.00;101864.41;4989463;28;20026;-66
2024/01/23 03:24:40;;;;;;;16.35;3.85;;;;;;;5.37;100.00;101870.34;4988684;28;20026;-66
2024/01/23 03:27:06;;;;;;;14.05;3.15;;;;;;;5.39;100.00;101871.38;4989214;28;20034;-66
2024/01/23 03:29:40;;;;;;;11.40;3.35;;;;;;;5.40;100.00;101874.03;4983322;28;20034;-65
2024/01/23 03:32:06;;;;;;;16.90;3.50;;;;;;;5.37;100.00;101876.41;4981868;28;20030;-66
2024/01/23 03:34:32;;;;;;;16.77;3.15;;;;;;;5.34;100.00;101870.16;4985035;28;20091;-66
2024/01/23 03:37:00;;;;;;;15.32;3.20;;;;;;;5.32;100.00;101870.06;4988932;28;20486;-66
2024/01/23 03:39:26;;;;;;;12.93;2.92;;;;;;;5.31;100.00;101865.69;4988350;28;20109;-66
2024/01/23 03:41:51;;;;;;;16.50;4.00;;;;;;;5.28;100.00;101868.94;4976716;28;20117;-66
2024/01/23 03:44:16;;;;;;;18.10;3.30;;;;;;;5.25;100.00;101878.13;4987360;28;20033;-65
2024/01/23 03:46:41;;;;;;;19.08;3.80;;;;;;;5.24;100.00;101890.06;4988331;28;20408;-65
2024/01/23 03:49:07;;;;;;;12.88;3.20;;;;;;;5.21;100.00;101905.28;4985864;28;20382;-66
2024/01/23 03:51:32;;;;;;;18.42;3.50;;;;;;;5.19;100.00;101916.22;4980815;28;20029;-65
2024/01/23 03:53:57;;;;;;;22.05;3.45;;;;;;;5.17;100.00;101916.09;4988185;28;20473;-66
2024/01/23 03:56:22;;;;;;;21.45;3.70;;;;;;;5.14;100.00;101919.38;5000034;28;20168;-66
2024/01/23 03:58:48;;;;;;;13.35;3.40;;;;;;;5.15;100.00;101935.66;5002483;28;20814;-66
2024/01/23 04:01:13;;;;;;;13.15;3.05;;;;;;;5.14;100.00;101934.78;4988367;28;20324;-66
2024/01/23 04:03:38;;;;;;;16.30;3.63;;;;;;;5.09;100.00;101918.13;4988415;28;20182;-65
2024/01/23 04:06:04;;;;;;;13.73;3.40;;;;;;;5.09;100.00;101919.81;4977750;28;20529;-66
2024/01/23 04:08:29;;;;;;;15.90;3.55;;;;;;;5.07;100.00;101916.25;4986029;28;20034;-66
2024/01/23 04:10:57;;;;;;;18.88;3.28;;;;;;;5.07;100.00;101921.38;4988056;28;20391;-66
2024/01/23 04:13:22;;;;;;;16.15;3.45;;;;;;;5.02;100.00;101924.50;4987884;28;20022;-66
2024/01/23 04:15:48;;;;;;;16.23;3.20;;;;;;;5.01;100.00;101916.69;4987952;28;20045;-66
2024/01/23 04:18:13;;;;;;;15.07;2.88;;;;;;;5.00;100.00;101933.75;4987624;28;20365;-66
2024/01/23 04:20:40;;;;;;;15.27;3.20;;;;;;;4.97;100.00;101930.97;4988055;28;20430;-66
2024/01/23 04:23:05;;;;;;;16.38;3.25;;;;;;;4.98;100.00;101935.34;4987756;28;20049;-66
2024/01/23 04:25:30;;;;;;;19.98;3.53;;;;;;;4.95;100.00;101940.25;4988022;28;20026;-66
2024/01/23 04:27:57;;;;;;;14.43;2.65;;;;;;;4.92;100.00;101932.31;4987174;28;20026;-66
2024/01/23 04:30:22;;;;;;;15.75;3.47;;;;;;;4.92;100.00;101952.88;4987757;28;20034;-66
2024/01/23 04:32:48;;;;;;;16.90;2.95;;;;;;;4.91;100.00;101951.09;4987219;28;20022;-65
2024/01/23 04:35:13;;;;;;;15.85;3.72;;;;;;;4.88;100.00;101951.75;4977494;28;20049;-66
2024/01/23 04:37:38;;;;;;;17.23;3.58;;;;;;;4.87;100.00;101956.78;4972035;28;20022;-65
2024/01/23 04:40:07;;;;;;;18.40;3.35;;;;;;;4.85;100.00;101968.63;4987951;28;20482;-66
2024/01/23 04:42:33;;;;;;;17.83;4.20;;;;;;;4.85;100.00;101981.47;4987624;28;20041;-66
2024/01/23 04:44:58;;;;;;;21.63;3.53;;;;;;;4.83;100.00;101985.59;4986677;28;20487;-65
2024/01/23 04:47:23;;;;;;;17.57;3.57;;;;;;;4.82;100.00;101986.38;4987567;28;20109;-65
2024/01/23 04:49:49;;;;;;;19.50;4.10;;;;;;;4.79;100.00;101992.19;4987098;28;20141;-66
2024/01/23 04:52:14;;;;;;;16.53;3.77;;;;;;;4.77;100.00;101994.63;4987329;28;20439;-66
2024/01/23 04:54:41;;;;;;;14.57;3.50;;;;;;;4.77;100.00;102004.91;4987171;28;20056;-66
2024/01/23 04:57:06;;;;;;;14.60;2.90;;;;;;;4.76;100.00;102013.41;4999621;28;20483;-66
2024/01/23 04:59:32;;;;;;;21.50;4.50;;;;;;;4.75;100.00;102016.72;4987307;28;20041;-65
2024/01/23 05:01:57;;;;;;;14.68;3.63;;;;;;;4.76;100.00;102021.13;4987296;28;20037;-65
2024/01/23 05:04:22;;;;;;;20.00;3.55;;;;;;;4.74;100.00;102017.53;4987409;28;20216;-65
2024/01/23 05:06:48;;;;;;;20.20;3.60;;;;;;;4.74;100.00;102035.50;4986935;28;20031;-65
2024/01/23 05:09:13;;;;;;;17.63;3.25;;;;;;;4.72;100.00;102041.28;4986505;28;20030;-66
2024/01/23 05:11:38;;;;;;;19.40;3.13;;;;;;;4.71;100.00;102044.66;4987161;28;20030;-65
2024/01/23 05:14:03;;;;;;;16.40;3.33;;;;;;;4.68;100.00;102056.47;4987282;28;20502;-65
2024/01/23 05:16:29;;;;;;;20.30;3.67;;;;;;;4.65;100.00;102071.66;4986835;28;20391;-66
2024/01/23 05:18:54;;;;;;;15.93;3.25;;;;;;;4.63;100.00;102067.16;4986539;28;20062;-66
2024/01/23 05:21:19;;;;;;;19.35;3.72;;;;;;;4.60;100.00;102060.16;4986384;28;20061;-66
2024/01/23 05:23:45;;;;;;;16.02;3.22;;;;;;;4.56;100.00;102069.28;4986709;28;20130;-65
2024/01/23 05:26:10;;;;;;;17.20;2.88;;;;;;;4.54;100.00;102062.22;4986599;28;20033;-66
2024/01/23 05:28:36;;;;;;;14.02;3.30;;;;;;;4.53;100.00;102075.88;4986647;28;20376;-66
2024/01/23 05:31:01;;;;;;;15.37;3.57;;;;;;;4.50;100.00;102073.03;4986508;28;20048;-65
2024/01/23 05:33:27;;;;;;;18.38;3.50;;;;;;;4.48;100.00;102085.75;4986166;28;20092;-66
2024/01/23 05:35:52;;;;;;;16.07;2.83;;;;;;;4.48;100.00;102085.75;4987052;28;20034;-65
2024/01/23 05:38:17;;;;;;;17.30;2.80;;;;;;;4.46;100.00;102099.28;4987019;28;20010;-66
2024/01/23 05:40:43;;;;;;;18.83;4.23;;;;;;;4.42;100.00;102108.41;4986850;28;20026;-65
2024/01/23 05:43:08;;;;;;;17.07;3.90;;;;;;;4.41;100.00;102114.28;4986570;28;20030;-65
2024/01/23 05:45:33;;;;;;;14.77;2.90;;;;;;;4.39;100.00;102119.31;4986401;28;20057;-65
2024/01/23 05:47:58;;;;;;;13.93;3.30;;;;;;;4.37;100.00;102131.13;4986765;28;20497;-66
2024/01/23 05:50:24;;;;;;;13.48;2.70;;;;;;;4.35;100.00;102134.38;4986729;28;20019;-65
2024/01/23 05:52:49;;;;;;;13.30;3.17;;;;;;;4.35;100.00;102149.78;4986469;28;20030;-65
2024/01/23 05:55:15;;;;;;;15.43;3.22;;;;;;;4.33;100.00;102154.78;4988739;28;20030;-66
2024/01/23 05:57:40;;;;;;;15.50;3.13;;;;;;;4.30;100.00;102150.28;5008797;28;20022;-66
2024/01/23 06:00:08;;;;;;;14.40;3.50;;;;;;;4.27;100.00;102150.06;4993933;28;20049;-66
2024/01/23 06:02:33;;;;;;;13.32;3.10;;;;;;;4.27;100.00;102155.19;4991014;28;20033;-65
2024/01/23 06:04:59;;;;;;;18.03;3.43;;;;;;;4.26;100.00;102161.13;4990435;28;20022;-65
2024/01/23 06:07:24;;;;;;;18.80;3.77;;;;;;;4.26;100.00;102155.06;4989922;28;20622;-65
2024/01/23 06:09:49;;;;;;;14.20;3.27;;;;;;;4.24;100.00;102149.81;4990479;28;20027;-66
2024/01/23 06:12:15;;;;;;;15.90;2.83;;;;;;;4.26;100.00;102155.06;4990446;28;20050;-66
2024/01/23 06:14:40;;;;;;;17.23;3.47;;;;;;;4.25;100.00;102151.59;4980742;28;20038;-65
2024/01/23 06:17:05;;;;;;;20.07;3.60;;;;;;;4.23;100.00;102148.00;4982453;28;20026;-65
2024/01/23 06:19:31;;;;;;;19.47;4.13;;;;;;;4.24;100.00;102154.06;4976749;28;20653;-65
2024/01/23 06:21:56;;;;;;;15.50;3.00;;;;;;;4.23;100.00;102157.41;4980464;28;20022;-65
2024/01/23 06:24:21;;;;;;;18.17;3.90;;;;;;;4.23;100.00;102168.53;4989340;28;20037;-65
2024/01/23 06:26:46;;;;;;;19.80;3.60;;;;;;;4.26;100.00;102179.06;4989039;28;20071;-66
2024/01/23 06:29:12;;;;;;;19.63;3.70;;;;;;;4.25;100.00;102181.50;4986680;28;20023;-65
2024/01/23 06:31:37;;;;;;;18.97;3.37;;;;;;;4.23;100.00;102189.06;4984703;28;20738;-65
2024/01/23 06:34:04;;;;;;;14.93;2.93;;;;;;;4.24;100.00;102185.75;4988295;28;20033;-65
2024/01/23 06:36:31;;;;;;;16.90;4.10;;;;;;;4.25;100.00;102189.19;4989986;28;20034;-65
2024/01/23 06:38:56;;;;;;;16.33;4.03;;;;;;;4.22;100.00;102191.53;4979949;28;20057;-66
2024/01/23 06:41:21;;;;;;;20.10;3.80;;;;;;;4.23;100.00;102188.19;4988724;28;20030;-66
2024/01/23 06:43:47;;;;;;;18.97;4.10;;;;;;;4.22;100.00;102187.31;4980911;28;20034;-66
2024/01/23 06:46:12;;;;;;;19.20;3.67;;;;;;;4.24;100.00;102192.53;4981559;28;20047;-65
2024/01/23 06:48:37;;;;;;;14.53;3.60;;;;;;;4.24;100.00;102201.16;4988875;28;20034;-66
2024/01/23 06:51:03;;;;;;;16.40;3.97;;;;;;;4.23;100.00;102183.06;4983596;28;20030;-66
2024/01/23 06:53:28;;;;;;;23.67;4.07;;;;;;;4.23;100.00;102194.22;4976433;28;20034;-65
2024/01/23 06:55:53;;;;;;;17.13;3.40;;;;;;;4.21;100.00;102200.88;4989512;28;20389;-66
2024/01/23 06:58:19;;;;;;;17.73;3.57;;;;;;;4.23;100.00;102201.03;4987718;28;20034;-65
2024/01/23 07:00:44;;;;;;;15.90;3.60;;;;;;;4.21;100.00;102206.03;4989294;28;20475;-66
2024/01/23 07:03:09;;;;;;;16.85;3.33;;;;;;;4.20;100.00;102212.84;4988335;28;20037;-65
2024/01/23 07:05:35;;;;;;;16.80;3.60;;;;;;;4.19;100.00;102207.59;4983701;28;20064;-66
2024/01/23 07:08:02;;;;;;;19.23;3.27;;;;;;;4.18;100.00;102218.59;4979573;28;20045;-65
2024/01/23 07:10:28;;;;;;;12.67;3.20;;;;;;;4.19;100.00;102218.72;4989871;28;20034;-65
2024/01/23 07:12:53;;;;;;;14.93;4.70;;;;;;;4.18;100.00;102227.22;4983131;28;20033;-65
2024/01/23 07:15:19;;;;;;;16.37;3.60;;;;;;;4.17;100.00;102216.84;4985239;28;20468;-65
2024/01/23 07:17:44;;;;;;;17.33;3.67;;;;;;;4.15;100.00;102216.72;4979829;28;20027;-65
2024/01/23 07:20:10;;;;;;;15.37;3.50;;;;;;;4.14;100.00;102219.13;4984855;28;20026;-65
2024/01/23 07:22:36;;;;;;;18.67;3.60;;;;;;;4.14;100.00;102227.72;4984850;28;20030;-66
2024/01/23 07:25:03;;;;;;;15.73;3.17;;;;;;;4.11;100.00;102235.19;4986644;28;20068;-65
2024/01/23 07:27:30;;;;;;;14.73;3.10;;;;;;;4.11;100.00;102229.16;4986026;28;20062;-65
2024/01/23 07:29:55;;;;;;;16.90;3.47;;;;;;;4.13;100.00;102232.75;4987028;28;20030;-65
2024/01/23 07:32:21;;;;;;;17.37;3.37;;;;;;;4.09;100.00;102241.84;4986905;28;20033;-66
2024/01/23 07:34:46;;;;;;;19.37;3.73;;;;;;;4.11;100.00;102244.53;4987648;28;20033;-66
2024/01/23 07:37:11;;;;;;;21.67;3.87;;;;;;;4.12;100.00;102252.38;4989150;28;20045;-65
2024/01/23 07:39:37;;;;;;;14.07;3.20;;;;;;;4.11;100.00;102249.69;4988844;28;20046;-65
2024/01/23 07:42:02;;;;;;;17.53;3.37;;;;;;;4.12;100.00;102256.63;4989070;28;20042;-65
2024/01/23 07:44:28;;;;;;;13.23;3.10;;;;;;;4.20;100.00;102259.03;4988403;28;20558;-65
2024/01/23 07:46:54;;;;;;;13.23;3.70;;;;;;;4.20;100.00;102260.69;4988379;28;20146;-65
2024/01/23 07:49:19;;;;;;;18.30;3.60;;;;;;;4.22;100.00;102269.41;4988487;28;20057;-65
2024/01/23 07:51:48;;;;;;;13.63;3.30;;;;;;;4.19;100.00;102264.03;4988385;28;20430;-65
2024/01/23 07:54:14;;;;;;;13.97;2.90;;;;;;;4.11;100.00;102259.94;4988617;28;20026;-65
2024/01/23 07:56:39;;;;;;;16.40;3.43;;;;;;;4.10;100.00;102255.59;4988109;28;20478;-65
2024/01/23 07:59:05;;;;;;;22.50;4.00;;;;;;;4.12;100.00;102262.63;4988078;28;20383;-65
2024/01/23 08:01:30;;;;;;;14.63;4.53;;;;;;;4.10;100.00;102260.72;4978371;28;20034;-65
2024/01/23 08:03:57;;;;;;;20.07;4.13;;;;;;;4.06;100.00;102263.06;4976390;28;20030;-65
2024/01/23 08:06:22;;;;;;;17.80;3.07;;;;;;;4.06;100.00;102273.31;4979157;28;20488;-65
2024/01/23 08:08:47;;;;;;;18.63;3.73;;;;;;;4.01;100.00;102287.41;4991684;28;20034;-65
2024/01/23 08:11:14;;;;;;;14.97;3.77;;;;;;;3.98;100.00;102300.00;4981706;28;20058;-65
2024/01/23 08:13:39;;;;;;;17.83;3.73;;;;;;;4.01;100.00;102310.50;4984249;28;20065;-66
2024/01/23 08:16:10;;;;;;;12.90;3.43;;;;;;;3.97;100.00;102319.59;4979111;28;20396;-65
2024/01/23 08:18:36;;;;;;;19.60;3.73;;;;;;;4.02;100.00;102325.13;4983576;28;20117;-65
2024/01/23 08:21:02;;;;;;;14.23;3.43;;;;;;;4.06;100.00;102332.31;4978931;28;20023;-65
2024/01/23 08:23:28;;;;;;;11.67;2.67;;;;;;;4.07;100.00;102326.41;4987824;28;20483;-65
2024/01/23 08:25:53;;;;;;;21.80;3.40;;;;;;;4.06;100.00;102337.47;4987607;28;20052;-65
2024/01/23 08:28:19;;;;;;;15.47;3.40;;;;;;;4.05;100.00;102343.34;4987469;28;20121;-66
2024/01/23 08:30:44;;;;;;;20.57;4.83;;;;;;;4.04;100.00;102341.56;4987441;28;20565;-66
2024/01/23 08:33:14;;;;;;;13.23;2.97;;;;;;;4.07;100.00;102346.94;4984465;28;20165;-65
2024/01/23 08:35:40;;;;;;;14.00;3.30;;;;;;;4.07;100.00;102346.94;4974899;28;20030;-66
2024/01/23 08:38:05;;;;;;;14.90;3.50;;;;;;;4.11;100.00;102362.56;4978298;28;20506;-65
2024/01/23 08:40:30;;;;;;;22.37;3.83;;;;;;;4.10;100.00;102356.56;4973884;28;20026;-66
2024/01/23 08:42:56;;;;;;;15.07;3.47;;;;;;;4.13;100.00;102356.81;4972880;28;20038;-65
2024/01/23 08:45:21;;;;;;;18.57;4.10;;;;;;;4.12;100.00;102356.69;4978290;28;20054;-65
2024/01/23 08:47:46;;;;;;;18.23;3.30;;;;;;;4.16;100.00;102356.16;4977906;28;20037;-65
2024/01/23 08:50:12;;;;;;;18.80;4.40;;;;;;;4.22;100.00;102366.94;4977051;28;20390;-65
2024/01/23 08:52:40;;;;;;;15.67;4.67;;;;;;;4.37;100.00;102364.72;4984870;28;20047;-65
2024/01/23 08:55:06;;;;;;;15.03;3.53;;;;;;;4.57;100.00;102374.06;4975415;28;20066;-65
2024/01/23 08:57:31;;;;;;;15.90;3.00;;;;;;;4.76;100.00;102365.28;4995406;28;20039;-65
2024/01/23 08:59:56;;;;;;;20.20;3.77;;;;;;;4.91;100.00;102364.72;4981795;28;20030;-66
2024/01/23 09:02:21;;;;;;;18.13;3.97;;;;;;;4.96;100.00;102371.13;4971630;28;20031;-65
2024/01/23 09:04:47;;;;;;;14.63;3.60;;;;;;;5.05;100.00;102376.09;4981584;28;20399;-65
2024/01/23 09:07:12;;;;;;;11.30;3.37;;;;;;;5.07;100.00;102369.41;4983565;28;20030;-65
2024/01/23 09:09:38;;;;;;;13.20;3.60;;;;;;;5.13;100.00;102377.59;4978445;28;20475;-65
2024/01/23 09:12:03;;;;;;;15.63;4.57;;;;;;;5.13;100.00;102368.97;4977174;28;20402;-65
2024/01/23 09:14:29;;;;;;;8.10;2.47;;;;;;;5.20;100.00;102376.38;4974399;28;20038;-66
2024/01/23 09:16:54;;;;;;;20.08;3.90;;;;;;;5.20;100.00;102381.53;4968811;28;20027;-65
2024/01/23 09:19:19;;;;;;;19.75;4.13;;;;;;;5.13;100.00;102379.25;4969325;28;20106;-65
2024/01/23 09:21:44;;;;;;;18.92;3.45;;;;;;;5.12;100.00;102382.63;4973489;28;20051;-66
2024/01/23 09:24:10;;;;;;;16.30;4.03;;;;;;;5.12;100.00;102386.09;4977126;28;20026;-65
2024/01/23 09:26:35;;;;;;;13.27;3.47;;;;;;;5.15;100.00;102382.84;4969238;28;20081;-66
2024/01/23 09:29:01;;;;;;;18.55;3.75;;;;;;;5.18;100.00;102367.66;4986755;28;20149;-65
2024/01/23 09:31:26;;;;;;;18.33;3.72;;;;;;;5.21;100.00;102355.06;4987531;28;20129;-65
2024/01/23 09:33:51;;;;;;;18.48;5.05;;;;;;;5.25;100.00;102361.34;4989795;28;20092;-65
2024/01/23 09:36:18;;;;;;;14.07;3.40;;;;;;;5.23;100.00;102360.31;4980387;28;20060;-65
2024/01/23 09:38:44;;;;;;;17.77;3.92;;;;;;;5.26;100.00;102363.13;4976204;28;20081;-65
2024/01/23 09:41:11;;;;;;;14.90;3.50;;;;;;;5.31;100.00;102363.50;4980202;28;20033;-65
2024/01/23 09:43:40;;;;;;;19.17;4.45;;;;;;;5.31;100.00;102373.78;4976213;28;20027;-66
2024/01/23 09:46:11;;;;;;;12.77;3.47;;;;;;;5.35;100.00;102374.13;4977954;28;20407;-65
2024/01/23 09:48:36;;;;;;;;;;;;;;;5.36;100.00;102382.75;4977256;28;20049;-65
2024/01/23 09:51:02;;;;;;;23.37;4.10;;;;;;;5.41;100.00;102386.59;4978689;28;19973;-65
2024/01/23 09:53:28;;;;;;;15.97;3.60;;;;;;;5.43;100.00;102379.88;4989943;28;20030;-65
2024/01/23 09:55:53;;;;;;;17.23;3.88;;;;;;;5.53;100.00;102389.19;4997773;28;20511;-65
2024/01/23 09:58:20;;;;;;;15.27;3.83;;;;;;;5.56;100.00;102384.28;4993724;28;20106;-65
2024/01/23 10:00:46;;;;;;;20.17;3.80;;;;;;;5.59;100.00;102392.25;4989214;28;20529;-65
2024/01/23 10:03:12;;;;;;;15.98;3.67;;;;;;;5.59;100.00;102383.66;4984890;28;20034;-65
2024/01/23 10:05:37;;;;;;;13.90;3.60;;;;;;;5.61;100.00;102380.38;4987183;28;20018;-65
2024/01/23 10:08:03;;;;;;;16.88;3.58;;;;;;;5.66;100.00;102388.47;4996548;28;20537;-66
2024/01/23 10:10:29;;;;;;;14.73;3.28;;;;;;;5.72;100.00;102391.50;4986712;28;20470;-65
2024/01/23 10:12:54;;;;;;;16.48;3.42;;;;;;;5.79;100.00;102384.28;4982219;28;20046;-65
2024/01/23 10:15:22;;;;;;;12.23;3.47;;;;;;;5.84;100.00;102388.09;4982347;28;20031;-65
2024/01/23 10:17:48;;;;;;;22.73;4.10;;;;;;;5.85;100.00;102384.72;4983656;28;20030;-65
2024/01/23 10:20:14;;;;;;;17.17;3.58;;;;;;;5.96;100.00;102393.28;4983884;28;20033;-66
2024/01/23 10:22:40;;;;;;;14.23;3.65;;;;;;;5.98;100.00;102397.78;4978475;28;20023;-65
2024/01/23 10:25:10;;;;;;;16.20;3.30;;;;;;;6.00;100.00;102395.31;4982421;28;20052;-65
2024/01/23 10:27:35;;;;;;;15.55;3.97;;;;;;;6.06;100.00;102394.91;4989155;28;20069;-65
2024/01/23 10:30:00;;;;;;;14.13;4.05;;;;;;;6.09;100.00;102395.13;4972951;28;20090;-65
2024/01/23 10:32:28;;;;;;;16.88;3.58;;;;;;;6.19;100.00;102400.19;4974506;28;20019;-65
2024/01/23 10:34:56;;;;;;;17.35;3.92;;;;;;;6.18;100.00;102395.84;4972602;28;20033;-65
2024/01/23 10:37:22;;;;;;;14.90;3.42;;;;;;;6.23;100.00;102399.66;4973463;28;20026;-65
2024/01/23 10:39:49;;;;;;;17.00;4.22;;;;;;;6.29;100.00;102399.22;4971286;28;20106;-65
2024/01/23 10:42:15;;;;;;;18.00;3.45;;;;;;;6.32;100.00;102409.75;4972077;28;20034;-66
2024/01/23 10:44:42;;;;;;;15.02;4.20;;;;;;;6.38;100.00;102399.00;4970333;28;20035;-65
2024/01/23 10:47:07;;;;;;;21.40;3.83;;;;;;;6.41;100.00;102391.50;4971530;28;20447;-65
2024/01/23 10:49:33;;;;;;;11.75;2.97;;;;;;;6.49;100.00;102380.06;4971049;28;20298;-65
2024/01/23 10:52:03;;;;;;;18.38;3.30;;;;;;;6.46;100.00;102385.00;4971078;28;21117;-66
2024/01/23 10:54:31;;;;;;;17.88;4.68;;;;;;;6.41;100.00;102380.28;4969713;28;20115;-65
2024/01/23 10:56:58;;;;;;;16.55;3.30;;;;;;;6.45;100.00;102370.34;4996461;28;20023;-66
2024/01/23 10:59:27;;;;;;;20.60;5.20;;;;;;;6.46;100.00;102379.84;4974200;28;20046;-66
2024/01/23 11:02:01;;;;;;;16.85;3.70;;;;;;;6.48;100.00;102390.25;4975661;28;20053;-66
2024/01/23 11:04:26;;;;;;;18.38;4.25;;;;;;;6.53;100.00;102388.03;4981135;28;20027;-66
2024/01/23 11:06:58;;;;;;;18.15;3.97;;;;;;;6.60;100.00;102387.72;4980221;28;20015;-65
2024/01/23 11:09:29;;;;;;;;;;;;;;;6.64;100.00;102376.81;4975213;28;20029;-65